createdAt,value
2023-02-21T00:00:06.921Z,7.02
2023-02-21T00:05:50.581Z,7.05
2023-02-21T00:11:13.607Z,7.06
2023-02-21T00:16:37.226Z,7.04
2023-02-21T00:21:58.858Z,7.05
2023-02-21T00:27:21.117Z,7.07
2023-02-21T00:32:43.639Z,7.06
2023-02-21T00:38:11.198Z,7.04
2023-02-21T00:43:36.394Z,7.04
2023-02-21T00:48:58.829Z,7.00
2023-02-21T00:54:21.521Z,6.98
2023-02-21T00:59:44.643Z,6.97
2023-02-21T01:05:07.571Z,6.96
2023-02-21T01:10:28.926Z,7.00
2023-02-21T01:15:50.248Z,7.03
2023-02-21T01:21:14.325Z,7.03
2023-02-21T01:26:37.104Z,7.03
2023-02-21T01:32:00.440Z,7.06
2023-02-21T01:37:22.640Z,7.05
2023-02-21T01:42:47.463Z,7.06
2023-02-21T01:48:11.190Z,7.05
2023-02-21T01:53:40.585Z,7.05
2023-02-21T01:59:03.213Z,7.08
2023-02-21T02:04:26.032Z,7.10
2023-02-21T02:09:48.627Z,7.08
2023-02-21T02:15:11.112Z,7.07
2023-02-21T02:20:33.628Z,7.11
2023-02-21T02:26:06.898Z,7.16
2023-02-21T02:31:21.368Z,7.19
2023-02-21T02:36:41.494Z,7.21
2023-02-21T02:42:09.689Z,7.22
2023-02-21T02:47:22.828Z,7.23
2023-02-21T02:52:25.592Z,7.26
2023-02-21T02:57:40.828Z,7.26
2023-02-21T03:03:02.278Z,7.28
2023-02-21T03:08:26.743Z,7.33
2023-02-21T03:13:52.884Z,7.36
2023-02-21T03:19:09.403Z,7.33
2023-02-21T03:24:16.043Z,7.35
2023-02-21T03:29:20.203Z,7.36
2023-02-21T03:34:23.416Z,7.37
2023-02-21T03:39:26.169Z,7.41
2023-02-21T03:44:29.050Z,7.38
2023-02-21T03:49:31.692Z,7.32
2023-02-21T03:54:33.683Z,7.27
2023-02-21T03:59:36.782Z,7.22
2023-02-21T04:04:39.884Z,7.18
2023-02-21T04:09:43.892Z,7.18
2023-02-21T04:14:46.179Z,7.15
2023-02-21T04:19:49.655Z,7.13
2023-02-21T04:24:53.185Z,7.15
2023-02-21T04:29:56.703Z,7.17
2023-02-21T04:35:00.335Z,7.19
2023-02-21T04:40:02.842Z,7.22
2023-02-21T04:45:06.016Z,7.22
2023-02-21T04:50:09.102Z,7.21
2023-02-21T04:55:13.532Z,7.18
2023-02-21T05:00:16.210Z,7.13
2023-02-21T05:05:19.441Z,7.06
2023-02-21T05:10:23.315Z,7.01
2023-02-21T05:15:26.014Z,6.97
2023-02-21T05:20:28.978Z,6.92
2023-02-21T05:25:32.128Z,6.90
2023-02-21T05:30:36.718Z,6.87
2023-02-21T05:35:40.229Z,6.84
2023-02-21T05:40:43.830Z,6.79
2023-02-21T05:45:46.080Z,6.75
2023-02-21T05:50:48.033Z,6.65
2023-02-21T05:55:51.301Z,6.54
2023-02-21T06:00:55.040Z,6.49
2023-02-21T06:06:00.125Z,6.46
2023-02-21T06:11:03.370Z,6.45
2023-02-21T06:16:07.546Z,6.45
2023-02-21T06:21:10.336Z,6.45
2023-02-21T06:26:15.319Z,6.45
2023-02-21T06:31:21.017Z,6.48
2023-02-21T06:36:26.992Z,6.50
2023-02-21T06:41:31.182Z,6.52
2023-02-21T06:46:38.963Z,6.55
2023-02-21T06:51:44.040Z,6.59
2023-02-21T06:56:47.689Z,6.64
2023-02-21T07:01:50.785Z,6.63
2023-02-21T07:06:54.553Z,6.68
2023-02-21T07:11:58.280Z,6.77
2023-02-21T07:17:00.686Z,6.99
2023-02-21T07:22:03.505Z,7.65
2023-02-21T07:27:07.200Z,8.58
2023-02-21T07:32:10.202Z,9.30
2023-02-21T07:37:13.528Z,9.67
2023-02-21T07:42:16.947Z,9.23
2023-02-21T07:47:19.493Z,9.43
2023-02-21T07:52:23.224Z,9.84
2023-02-21T07:57:26.218Z,10.12
2023-02-21T08:02:29.720Z,10.23
2023-02-21T08:07:32.811Z,10.21
2023-02-21T08:12:36.602Z,10.06
2023-02-21T08:17:39.962Z,9.93
2023-02-21T08:22:43.350Z,10.00
2023-02-21T08:27:53.888Z,9.88
2023-02-21T08:32:57.649Z,9.50
2023-02-21T08:38:05.289Z,9.17
2023-02-21T08:43:08.512Z,8.91
2023-02-21T08:48:13.622Z,8.72
2023-02-21T08:53:16.478Z,8.64
2023-02-21T08:58:18.860Z,8.56
2023-02-21T09:03:20.590Z,8.52
2023-02-21T09:08:27.092Z,8.61
2023-02-21T09:13:34.762Z,8.78
2023-02-21T09:18:38.276Z,8.84
2023-02-21T09:23:40.987Z,8.78
2023-02-21T09:28:43.784Z,8.66
2023-02-21T09:33:46.546Z,8.61
2023-02-21T09:38:49.897Z,8.50
2023-02-21T09:43:55.070Z,8.54
2023-02-21T09:48:58.631Z,8.61
2023-02-21T09:54:03.874Z,8.76
2023-02-21T09:59:12.996Z,8.85
2023-02-21T10:04:30.921Z,8.76
2023-02-21T10:09:46.816Z,8.78
2023-02-21T10:15:10.740Z,8.70
2023-02-21T10:20:39.393Z,8.81
2023-02-21T10:25:46.985Z,8.94
2023-02-21T10:30:56.080Z,8.99
2023-02-21T10:36:00.331Z,8.99
2023-02-21T10:41:05.600Z,8.97
2023-02-21T10:46:24.473Z,8.93
2023-02-21T10:51:35.795Z,8.85
2023-02-21T10:56:39.067Z,8.80
2023-02-21T11:01:46.969Z,8.71
2023-02-21T11:06:50.940Z,8.70
2023-02-21T11:12:06.947Z,8.58
2023-02-21T11:17:15.449Z,8.53
2023-02-21T11:22:25.278Z,8.50
2023-02-21T11:27:32.394Z,8.48
2023-02-21T11:32:40.755Z,8.43
2023-02-21T11:38:00.162Z,8.35
2023-02-21T11:43:18.622Z,8.36
2023-02-21T11:48:31.810Z,8.32
2023-02-21T11:53:42.332Z,8.20
2023-02-21T11:58:59.246Z,8.11
2023-02-21T12:04:31.087Z,8.05
2023-02-21T12:09:48.197Z,8.02
2023-02-21T12:15:10.180Z,7.96
2023-02-21T12:20:25.600Z,8.02
2023-02-21T12:26:22.880Z,8.10
2023-02-21T12:32:01.093Z,8.27
2023-02-21T12:37:19.226Z,8.44
2023-02-21T12:42:44.614Z,8.53
2023-02-21T12:48:26.504Z,8.48
2023-02-21T12:53:36.737Z,8.45
2023-02-21T12:58:49.853Z,8.45
2023-02-21T13:04:19.370Z,8.40
2023-02-21T13:09:36.332Z,8.31
2023-02-21T13:15:13.542Z,8.16
2023-02-21T13:20:21.568Z,8.13
2023-02-21T13:25:45.606Z,8.13
2023-02-21T13:30:53.604Z,8.06
2023-02-21T13:36:01.447Z,8.05
2023-02-21T13:41:18.255Z,7.92
2023-02-21T13:46:46.113Z,7.80
2023-02-21T13:51:53.220Z,7.68
2023-02-21T13:56:56.528Z,7.61
2023-02-21T14:02:29.111Z,7.56
2023-02-21T14:07:48.223Z,7.53
2023-02-21T14:13:04.808Z,7.46
2023-02-21T14:18:17.241Z,7.45
2023-02-21T14:23:24.119Z,7.43
2023-02-21T14:28:47.422Z,7.39
2023-02-21T14:33:51.609Z,7.32
2023-02-21T14:38:54.552Z,7.29
2023-02-21T14:44:04.354Z,7.24
2023-02-21T14:49:25.883Z,7.21
2023-02-21T14:55:03.990Z,7.24
2023-02-21T15:00:21.802Z,7.24
2023-02-21T15:05:52.864Z,7.20
2023-02-21T15:11:06.424Z,7.15
2023-02-21T15:16:12.074Z,7.12
2023-02-21T15:21:18.976Z,7.10
2023-02-21T15:26:30.661Z,7.07
2023-02-21T15:31:50.708Z,7.03
2023-02-21T15:37:09.291Z,7.02
2023-02-21T15:42:17.672Z,6.98
2023-02-21T15:47:23.274Z,6.92
2023-02-21T15:52:37.139Z,6.84
2023-02-21T15:57:42.608Z,6.75
2023-02-21T16:02:49.126Z,6.67
2023-02-21T16:07:56.866Z,6.67
2023-02-21T16:13:05.254Z,6.66
2023-02-21T16:18:15.692Z,6.65
2023-02-21T16:23:31.219Z,6.63
2023-02-21T16:28:34.500Z,6.59
2023-02-21T16:33:38.206Z,6.56
2023-02-21T16:38:43.173Z,6.56
2023-02-21T16:43:49.689Z,6.54
2023-02-21T16:48:55.812Z,6.51
2023-02-21T16:54:03.086Z,6.51
2023-02-21T16:59:09.994Z,6.48
2023-02-21T17:04:23.332Z,6.46
2023-02-21T17:09:30.819Z,6.47
2023-02-21T17:14:34.878Z,6.45
2023-02-21T17:19:41.092Z,6.38
2023-02-21T17:24:44.736Z,6.34
2023-02-21T17:29:48.869Z,6.31
2023-02-21T17:34:51.790Z,6.26
2023-02-21T17:39:56.078Z,6.20
2023-02-21T17:45:03.050Z,6.16
2023-02-21T17:50:10.982Z,6.15
2023-02-21T17:55:25.835Z,6.17
2023-02-21T18:00:30.904Z,6.16
2023-02-21T18:05:36.514Z,6.11
2023-02-21T18:10:46.274Z,6.05
2023-02-21T18:15:51.703Z,6.07
2023-02-21T18:21:01.142Z,6.11
2023-02-21T18:26:04.547Z,6.13
2023-02-21T18:31:10.818Z,6.10
2023-02-21T18:36:17.739Z,6.07
2023-02-21T18:41:24.296Z,6.08
2023-02-21T18:46:27.944Z,6.13
2023-02-21T18:51:36.325Z,6.13
2023-02-21T18:56:50.793Z,6.12
2023-02-21T19:01:56.346Z,6.09
2023-02-21T19:07:06.105Z,6.09
2023-02-21T19:12:11.356Z,6.10
2023-02-21T19:17:15.428Z,6.06
2023-02-21T19:22:20.412Z,6.02
2023-02-21T19:27:24.945Z,5.95
2023-02-21T19:32:28.672Z,5.94
2023-02-21T19:37:32.760Z,5.92
2023-02-21T19:42:38.138Z,5.91
2023-02-21T19:47:41.343Z,5.87
2023-02-21T19:52:56.625Z,5.81
2023-02-21T19:58:09.897Z,5.83
2023-02-21T20:03:14.343Z,5.87
2023-02-21T20:08:18.966Z,5.87
2023-02-21T20:13:22.608Z,5.82
2023-02-21T20:18:24.847Z,5.77
2023-02-21T20:23:27.324Z,5.76
2023-02-21T20:28:30.827Z,5.79
2023-02-21T20:33:36.565Z,5.80
2023-02-21T20:38:39.878Z,5.81
2023-02-21T20:43:43.332Z,5.77
2023-02-21T20:48:45.367Z,5.74
2023-02-21T20:53:49.105Z,5.77
2023-02-21T20:58:51.402Z,5.82
2023-02-21T21:03:55.270Z,5.81
2023-02-21T21:08:58.187Z,5.76
2023-02-21T21:14:04.269Z,5.69
2023-02-21T21:19:09.064Z,5.63
2023-02-21T21:24:14.010Z,5.62
2023-02-21T21:29:18.227Z,5.56
2023-02-21T21:34:23.980Z,5.49
2023-02-21T21:39:27.835Z,5.38
2023-02-21T21:44:29.966Z,5.25
2023-02-21T21:49:35.461Z,5.17
2023-02-21T21:54:41.357Z,5.13
2023-02-21T21:59:49.774Z,5.10
2023-02-21T22:04:54.656Z,5.05
2023-02-21T22:09:57.633Z,4.98
2023-02-21T22:15:00.636Z,4.88
2023-02-21T22:20:16.942Z,4.76
2023-02-21T22:25:21.279Z,4.64
2023-02-21T22:30:26.469Z,4.59
2023-02-21T22:35:29.457Z,4.55
2023-02-21T22:40:36.887Z,4.49
2023-02-21T22:45:40.328Z,4.43
2023-02-21T22:50:48.134Z,4.32
2023-02-21T22:55:53.238Z,4.25
2023-02-21T23:01:00.550Z,4.17
2023-02-21T23:06:08.768Z,4.12
2023-02-21T23:11:24.201Z,4.07
2023-02-21T23:16:28.004Z,4.04
2023-02-21T23:21:31.197Z,4.00
2023-02-21T23:26:34.880Z,3.91
2023-02-21T23:31:38.924Z,3.81
2023-02-21T23:36:45.310Z,3.75
2023-02-21T23:41:49.427Z,3.73
2023-02-21T23:46:53.931Z,3.65
2023-02-21T23:51:57.406Z,3.57
2023-02-21T23:57:00.959Z,3.46
